sensor_id;sensor_type;location;lat;lon;timestamp;temperature;humidity
31783;DHT22;18351;47.560;9.708;2024-02-04T00:00:01;3.40;99.90
31783;DHT22;18351;47.560;9.708;2024-02-04T00:02:27;3.30;99.90
31783;DHT22;18351;47.560;9.708;2024-02-04T00:04:52;3.30;99.90
31783;DHT22;18351;47.560;9.708;2024-02-04T00:07:18;3.40;99.90
31783;DHT22;18351;47.560;9.708;2024-02-04T00:09:43;3.40;99.90
31783;DHT22;18351;47.560;9.708;2024-02-04T00:12:12;3.40;99.90
31783;DHT22;18351;47.560;9.708;2024-02-04T00:14:37;3.30;99.90
31783;DHT22;18351;47.560;9.708;2024-02-04T00:17:03;3.40;99.90
31783;DHT22;18351;47.560;9.708;2024-02-04T00:19:29;3.40;99.90
31783;DHT22;18351;47.560;9.708;2024-02-04T00:21:54;3.40;99.90
31783;DHT22;18351;47.560;9.708;2024-02-04T00:24:20;3.40;99.90
31783;DHT22;18351;47.560;9.708;2024-02-04T00:26:46;3.40;99.90
31783;DHT22;18351;47.560;9.708;2024-02-04T00:29:11;3.40;99.90
31783;DHT22;18351;47.560;9.708;2024-02-04T00:31:37;3.40;99.90
31783;DHT22;18351;47.560;9.708;2024-02-04T00:34:03;3.30;99.90
31783;DHT22;18351;47.560;9.708;2024-02-04T00:36:30;3.40;99.90
31783;DHT22;18351;47.560;9.708;2024-02-04T00:38:55;3.40;99.90
31783;DHT22;18351;47.560;9.708;2024-02-04T00:41:21;3.40;99.90
31783;DHT22;18351;47.560;9.708;2024-02-04T00:43:46;3.40;99.90
31783;DHT22;18351;47.560;9.708;2024-02-04T00:46:12;3.30;99.90
31783;DHT22;18351;47.560;9.708;2024-02-04T00:48:38;3.30;99.90
31783;DHT22;18351;47.560;9.708;2024-02-04T00:51:06;3.30;99.90
31783;DHT22;18351;47.560;9.708;2024-02-04T00:53:31;3.20;99.90
31783;DHT22;18351;47.560;9.708;2024-02-04T00:56:05;3.30;99.90
31783;DHT22;18351;47.560;9.708;2024-02-04T00:58:31;3.30;99.90
31783;DHT22;18351;47.560;9.708;2024-02-04T01:00:56;3.30;99.90
31783;DHT22;18351;47.560;9.708;2024-02-04T01:03:22;3.20;99.90
31783;DHT22;18351;47.560;9.708;2024-02-04T01:05:48;3.30;99.90
31783;DHT22;18351;47.560;9.708;2024-02-04T01:08:13;3.30;99.90
31783;DHT22;18351;47.560;9.708;2024-02-04T01:10:39;3.30;99.90
31783;DHT22;18351;47.560;9.708;2024-02-04T01:13:04;3.30;99.90
31783;DHT22;18351;47.560;9.708;2024-02-04T01:15:30;3.20;99.90
31783;DHT22;18351;47.560;9.708;2024-02-04T01:17:56;3.20;99.90
31783;DHT22;18351;47.560;9.708;2024-02-04T01:20:21;3.20;99.90
31783;DHT22;18351;47.560;9.708;2024-02-04T01:22:47;3.10;99.90
31783;DHT22;18351;47.560;9.708;2024-02-04T01:25:12;3.10;99.90
31783;DHT22;18351;47.560;9.708;2024-02-04T01:27:38;3.00;99.90
31783;DHT22;18351;47.560;9.708;2024-02-04T01:30:04;3.00;99.90
31783;DHT22;18351;47.560;9.708;2024-02-04T01:32:30;3.10;99.90
31783;DHT22;18351;47.560;9.708;2024-02-04T01:34:56;3.00;99.90
31783;DHT22;18351;47.560;9.708;2024-02-04T01:37:21;2.90;99.90
31783;DHT22;18351;47.560;9.708;2024-02-04T01:39:47;2.90;99.90
31783;DHT22;18351;47.560;9.708;2024-02-04T01:42:12;2.90;99.90
31783;DHT22;18351;47.560;9.708;2024-02-04T01:44:38;2.90;99.90
31783;DHT22;18351;47.560;9.708;2024-02-04T01:47:03;2.90;99.90
31783;DHT22;18351;47.560;9.708;2024-02-04T01:49:29;2.80;99.90
31783;DHT22;18351;47.560;9.708;2024-02-04T01:51:55;2.80;99.90
31783;DHT22;18351;47.560;9.708;2024-02-04T01:54:23;2.80;99.90
31783;DHT22;18351;47.560;9.708;2024-02-04T01:56:52;2.80;99.90
31783;DHT22;18351;47.560;9.708;2024-02-04T01:59:19;2.80;99.90
31783;DHT22;18351;47.560;9.708;2024-02-04T02:01:45;2.70;99.90
31783;DHT22;18351;47.560;9.708;2024-02-04T02:04:12;2.70;99.90
31783;DHT22;18351;47.560;9.708;2024-02-04T02:06:39;2.70;99.90
31783;DHT22;18351;47.560;9.708;2024-02-04T02:09:07;2.70;99.90
31783;DHT22;18351;47.560;9.708;2024-02-04T02:11:45;2.70;99.90
31783;DHT22;18351;47.560;9.708;2024-02-04T02:14:18;2.70;99.90
31783;DHT22;18351;47.560;9.708;2024-02-04T02:16:45;2.80;99.90
31783;DHT22;18351;47.560;9.708;2024-02-04T02:24:40;2.70;99.90
31783;DHT22;18351;47.560;9.708;2024-02-04T02:27:07;2.70;99.90
31783;DHT22;18351;47.560;9.708;2024-02-04T02:29:33;2.70;99.90
31783;DHT22;18351;47.560;9.708;2024-02-04T02:31:59;2.70;99.90
31783;DHT22;18351;47.560;9.708;2024-02-04T02:34:25;2.80;99.90
31783;DHT22;18351;47.560;9.708;2024-02-04T02:36:57;2.70;99.90
31783;DHT22;18351;47.560;9.708;2024-02-04T02:39:25;2.80;99.90
31783;DHT22;18351;47.560;9.708;2024-02-04T02:41:55;2.90;99.90
31783;DHT22;18351;47.560;9.708;2024-02-04T02:44:25;2.80;99.90
31783;DHT22;18351;47.560;9.708;2024-02-04T02:46:51;2.80;99.90
31783;DHT22;18351;47.560;9.708;2024-02-04T02:49:17;2.80;99.90
31783;DHT22;18351;47.560;9.708;2024-02-04T02:51:43;2.80;99.90
31783;DHT22;18351;47.560;9.708;2024-02-04T02:54:08;2.70;99.90
31783;DHT22;18351;47.560;9.708;2024-02-04T02:56:34;2.70;99.90
31783;DHT22;18351;47.560;9.708;2024-02-04T02:58:59;2.70;99.90
31783;DHT22;18351;47.560;9.708;2024-02-04T03:01:25;2.70;99.90
31783;DHT22;18351;47.560;9.708;2024-02-04T03:03:51;2.60;99.90
31783;DHT22;18351;47.560;9.708;2024-02-04T03:06:16;2.60;99.90
31783;DHT22;18351;47.560;9.708;2024-02-04T03:08:42;2.60;99.90
31783;DHT22;18351;47.560;9.708;2024-02-04T03:11:07;2.60;99.90
31783;DHT22;18351;47.560;9.708;2024-02-04T03:13:33;2.50;99.90
31783;DHT22;18351;47.560;9.708;2024-02-04T03:15:58;2.50;99.90
31783;DHT22;18351;47.560;9.708;2024-02-04T03:18:24;2.60;99.90
31783;DHT22;18351;47.560;9.708;2024-02-04T03:20:49;2.60;99.90
31783;DHT22;18351;47.560;9.708;2024-02-04T03:23:15;2.50;99.90
31783;DHT22;18351;47.560;9.708;2024-02-04T03:25:41;2.60;99.90
31783;DHT22;18351;47.560;9.708;2024-02-04T03:28:06;2.60;99.90
31783;DHT22;18351;47.560;9.708;2024-02-04T03:30:32;2.70;99.90
31783;DHT22;18351;47.560;9.708;2024-02-04T03:32:57;2.70;99.90
31783;DHT22;18351;47.560;9.708;2024-02-04T03:35:23;2.70;99.90
31783;DHT22;18351;47.560;9.708;2024-02-04T03:37:48;2.60;99.90
31783;DHT22;18351;47.560;9.708;2024-02-04T03:40:14;2.60;99.90
31783;DHT22;18351;47.560;9.708;2024-02-04T03:42:39;2.70;99.90
31783;DHT22;18351;47.560;9.708;2024-02-04T03:45:06;2.60;99.90
31783;DHT22;18351;47.560;9.708;2024-02-04T03:47:31;2.70;99.90
31783;DHT22;18351;47.560;9.708;2024-02-04T03:49:57;2.70;99.90
31783;DHT22;18351;47.560;9.708;2024-02-04T03:52:22;2.70;99.90
31783;DHT22;18351;47.560;9.708;2024-02-04T03:54:48;2.80;99.90
31783;DHT22;18351;47.560;9.708;2024-02-04T03:57:13;2.80;99.90
31783;DHT22;18351;47.560;9.708;2024-02-04T03:59:39;2.90;99.90
31783;DHT22;18351;47.560;9.708;2024-02-04T04:02:05;2.90;99.90
31783;DHT22;18351;47.560;9.708;2024-02-04T04:04:30;2.80;99.90
31783;DHT22;18351;47.560;9.708;2024-02-04T04:06:56;2.80;99.90
31783;DHT22;18351;47.560;9.708;2024-02-04T04:09:21;2.80;99.90
31783;DHT22;18351;47.560;9.708;2024-02-04T04:11:47;2.70;99.90
31783;DHT22;18351;47.560;9.708;2024-02-04T04:14:12;2.70;99.90
31783;DHT22;18351;47.560;9.708;2024-02-04T04:16:38;2.70;99.90
31783;DHT22;18351;47.560;9.708;2024-02-04T04:19:03;2.70;99.90
31783;DHT22;18351;47.560;9.708;2024-02-04T04:21:29;2.70;99.90
31783;DHT22;18351;47.560;9.708;2024-02-04T04:23:54;2.70;99.90
31783;DHT22;18351;47.560;9.708;2024-02-04T04:26:20;2.70;99.90
31783;DHT22;18351;47.560;9.708;2024-02-04T04:28:45;2.70;99.90
31783;DHT22;18351;47.560;9.708;2024-02-04T04:31:11;2.70;99.90
31783;DHT22;18351;47.560;9.708;2024-02-04T04:33:36;2.70;99.90
31783;DHT22;18351;47.560;9.708;2024-02-04T04:36:02;2.80;99.90
31783;DHT22;18351;47.560;9.708;2024-02-04T04:38:28;2.80;99.90
31783;DHT22;18351;47.560;9.708;2024-02-04T04:40:53;2.80;99.90
31783;DHT22;18351;47.560;9.708;2024-02-04T04:43:19;2.80;99.90
31783;DHT22;18351;47.560;9.708;2024-02-04T04:45:45;2.80;99.90
31783;DHT22;18351;47.560;9.708;2024-02-04T04:48:10;2.90;99.90
31783;DHT22;18351;47.560;9.708;2024-02-04T04:50:36;2.90;99.90
31783;DHT22;18351;47.560;9.708;2024-02-04T04:53:02;3.00;99.90
31783;DHT22;18351;47.560;9.708;2024-02-04T04:55:27;3.00;99.90
31783;DHT22;18351;47.560;9.708;2024-02-04T04:57:53;3.00;99.90
31783;DHT22;18351;47.560;9.708;2024-02-04T05:00:19;3.00;99.90
31783;DHT22;18351;47.560;9.708;2024-02-04T05:02:45;3.00;99.90
31783;DHT22;18351;47.560;9.708;2024-02-04T05:05:11;3.00;99.90
31783;DHT22;18351;47.560;9.708;2024-02-04T05:07:37;3.00;99.90
31783;DHT22;18351;47.560;9.708;2024-02-04T05:10:03;2.90;99.90
31783;DHT22;18351;47.560;9.708;2024-02-04T05:12:30;2.90;99.90
31783;DHT22;18351;47.560;9.708;2024-02-04T05:14:55;2.80;99.90
31783;DHT22;18351;47.560;9.708;2024-02-04T05:17:21;2.80;99.90
31783;DHT22;18351;47.560;9.708;2024-02-04T05:19:47;2.70;99.90
31783;DHT22;18351;47.560;9.708;2024-02-04T05:22:12;2.70;99.90
31783;DHT22;18351;47.560;9.708;2024-02-04T05:24:38;2.60;99.90
31783;DHT22;18351;47.560;9.708;2024-02-04T05:27:04;2.60;99.90
31783;DHT22;18351;47.560;9.708;2024-02-04T05:29:30;2.60;99.90
31783;DHT22;18351;47.560;9.708;2024-02-04T05:31:56;2.50;99.90
31783;DHT22;18351;47.560;9.708;2024-02-04T05:34:21;2.60;99.90
31783;DHT22;18351;47.560;9.708;2024-02-04T05:36:47;2.60;99.90
31783;DHT22;18351;47.560;9.708;2024-02-04T05:39:14;2.50;99.90
31783;DHT22;18351;47.560;9.708;2024-02-04T05:41:40;2.50;99.90
31783;DHT22;18351;47.560;9.708;2024-02-04T05:44:06;2.50;99.90
31783;DHT22;18351;47.560;9.708;2024-02-04T05:46:37;2.50;99.90
31783;DHT22;18351;47.560;9.708;2024-02-04T05:49:03;2.50;99.90
31783;DHT22;18351;47.560;9.708;2024-02-04T05:51:30;2.60;99.90
31783;DHT22;18351;47.560;9.708;2024-02-04T05:53:56;2.60;99.90
31783;DHT22;18351;47.560;9.708;2024-02-04T05:56:21;2.70;99.90
31783;DHT22;18351;47.560;9.708;2024-02-04T05:58:47;2.70;99.90
31783;DHT22;18351;47.560;9.708;2024-02-04T06:01:13;2.80;99.90
31783;DHT22;18351;47.560;9.708;2024-02-04T06:03:38;2.80;99.90
31783;DHT22;18351;47.560;9.708;2024-02-04T06:06:04;2.80;99.90
31783;DHT22;18351;47.560;9.708;2024-02-04T06:08:30;2.80;99.90
31783;DHT22;18351;47.560;9.708;2024-02-04T06:10:55;2.90;99.90
31783;DHT22;18351;47.560;9.708;2024-02-04T06:13:21;2.90;99.90
31783;DHT22;18351;47.560;9.708;2024-02-04T06:15:46;3.00;99.90
31783;DHT22;18351;47.560;9.708;2024-02-04T06:18:12;3.10;99.90
31783;DHT22;18351;47.560;9.708;2024-02-04T06:20:37;3.20;99.90
31783;DHT22;18351;47.560;9.708;2024-02-04T06:23:03;3.30;99.90
31783;DHT22;18351;47.560;9.708;2024-02-04T06:25:29;3.30;99.90
31783;DHT22;18351;47.560;9.708;2024-02-04T06:27:54;3.30;99.90
31783;DHT22;18351;47.560;9.708;2024-02-04T06:30:20;3.40;99.90
31783;DHT22;18351;47.560;9.708;2024-02-04T06:32:48;3.40;99.90
31783;DHT22;18351;47.560;9.708;2024-02-04T06:35:14;3.40;99.90
31783;DHT22;18351;47.560;9.708;2024-02-04T06:37:41;3.40;99.90
31783;DHT22;18351;47.560;9.708;2024-02-04T06:40:09;3.50;99.90
31783;DHT22;18351;47.560;9.708;2024-02-04T06:42:35;3.50;99.90
31783;DHT22;18351;47.560;9.708;2024-02-04T06:45:01;3.50;99.90
31783;DHT22;18351;47.560;9.708;2024-02-04T06:47:26;3.60;99.90
31783;DHT22;18351;47.560;9.708;2024-02-04T06:49:52;3.70;99.90
31783;DHT22;18351;47.560;9.708;2024-02-04T06:52:17;3.70;99.90
31783;DHT22;18351;47.560;9.708;2024-02-04T06:54:44;3.70;99.90
31783;DHT22;18351;47.560;9.708;2024-02-04T06:57:09;3.70;99.90
31783;DHT22;18351;47.560;9.708;2024-02-04T06:59:35;3.70;99.90
31783;DHT22;18351;47.560;9.708;2024-02-04T07:02:00;3.70;99.90
31783;DHT22;18351;47.560;9.708;2024-02-04T07:04:26;3.80;99.90
31783;DHT22;18351;47.560;9.708;2024-02-04T07:06:51;3.80;99.90
31783;DHT22;18351;47.560;9.708;2024-02-04T07:09:18;3.80;99.90
31783;DHT22;18351;47.560;9.708;2024-02-04T07:11:43;3.80;99.90
31783;DHT22;18351;47.560;9.708;2024-02-04T07:14:09;3.90;99.90
31783;DHT22;18351;47.560;9.708;2024-02-04T07:16:34;3.80;99.90
31783;DHT22;18351;47.560;9.708;2024-02-04T07:19:00;3.90;99.90
31783;DHT22;18351;47.560;9.708;2024-02-04T07:21:26;4.00;99.90
31783;DHT22;18351;47.560;9.708;2024-02-04T07:23:51;4.00;99.90
31783;DHT22;18351;47.560;9.708;2024-02-04T07:26:17;4.10;99.90
31783;DHT22;18351;47.560;9.708;2024-02-04T07:28:42;4.10;99.90
31783;DHT22;18351;47.560;9.708;2024-02-04T07:31:08;4.20;99.90
31783;DHT22;18351;47.560;9.708;2024-02-04T07:33:33;4.20;99.90
31783;DHT22;18351;47.560;9.708;2024-02-04T07:35:59;4.10;99.90
31783;DHT22;18351;47.560;9.708;2024-02-04T07:38:24;4.20;99.90
31783;DHT22;18351;47.560;9.708;2024-02-04T07:40:50;4.20;99.90
31783;DHT22;18351;47.560;9.708;2024-02-04T07:43:16;4.30;99.90
31783;DHT22;18351;47.560;9.708;2024-02-04T07:45:41;4.30;99.90
31783;DHT22;18351;47.560;9.708;2024-02-04T07:48:07;4.30;99.90
31783;DHT22;18351;47.560;9.708;2024-02-04T07:50:34;4.30;99.90
31783;DHT22;18351;47.560;9.708;2024-02-04T07:53:00;4.40;99.90
31783;DHT22;18351;47.560;9.708;2024-02-04T07:55:25;4.40;99.90
31783;DHT22;18351;47.560;9.708;2024-02-04T07:57:51;4.40;99.90
31783;DHT22;18351;47.560;9.708;2024-02-04T08:00:17;4.50;99.90
31783;DHT22;18351;47.560;9.708;2024-02-04T08:02:44;4.50;99.90
31783;DHT22;18351;47.560;9.708;2024-02-04T08:05:10;4.50;99.90
31783;DHT22;18351;47.560;9.708;2024-02-04T08:07:36;4.60;99.90
31783;DHT22;18351;47.560;9.708;2024-02-04T08:10:01;4.70;99.90
31783;DHT22;18351;47.560;9.708;2024-02-04T08:12:27;4.80;99.90
31783;DHT22;18351;47.560;9.708;2024-02-04T08:14:52;4.80;99.90
31783;DHT22;18351;47.560;9.708;2024-02-04T08:17:18;4.90;99.90
31783;DHT22;18351;47.560;9.708;2024-02-04T08:19:43;4.90;99.90
31783;DHT22;18351;47.560;9.708;2024-02-04T08:22:09;5.00;99.90
31783;DHT22;18351;47.560;9.708;2024-02-04T08:24:34;5.00;99.90
31783;DHT22;18351;47.560;9.708;2024-02-04T08:27:01;5.10;99.90
31783;DHT22;18351;47.560;9.708;2024-02-04T08:29:27;5.20;99.90
31783;DHT22;18351;47.560;9.708;2024-02-04T08:31:53;5.30;99.90
31783;DHT22;18351;47.560;9.708;2024-02-04T08:34:18;5.50;99.90
31783;DHT22;18351;47.560;9.708;2024-02-04T08:36:46;5.70;99.90
31783;DHT22;18351;47.560;9.708;2024-02-04T08:39:12;5.90;99.90
31783;DHT22;18351;47.560;9.708;2024-02-04T08:41:38;6.00;99.90
31783;DHT22;18351;47.560;9.708;2024-02-04T08:44:03;6.20;99.90
31783;DHT22;18351;47.560;9.708;2024-02-04T08:46:29;6.40;99.90
31783;DHT22;18351;47.560;9.708;2024-02-04T08:48:54;6.60;99.90
31783;DHT22;18351;47.560;9.708;2024-02-04T08:51:20;6.70;99.90
31783;DHT22;18351;47.560;9.708;2024-02-04T08:53:45;6.80;99.90
31783;DHT22;18351;47.560;9.708;2024-02-04T08:56:11;6.90;99.90
31783;DHT22;18351;47.560;9.708;2024-02-04T08:58:36;7.00;99.90
31783;DHT22;18351;47.560;9.708;2024-02-04T09:01:03;7.10;99.90
31783;DHT22;18351;47.560;9.708;2024-02-04T09:03:29;7.30;99.90
31783;DHT22;18351;47.560;9.708;2024-02-04T09:05:56;7.40;99.90
31783;DHT22;18351;47.560;9.708;2024-02-04T09:08:22;7.60;99.90
31783;DHT22;18351;47.560;9.708;2024-02-04T09:10:47;7.70;99.90
31783;DHT22;18351;47.560;9.708;2024-02-04T09:13:13;7.90;99.90
31783;DHT22;18351;47.560;9.708;2024-02-04T09:15:38;8.00;99.90
31783;DHT22;18351;47.560;9.708;2024-02-04T09:18:04;8.10;99.90
31783;DHT22;18351;47.560;9.708;2024-02-04T09:20:30;8.20;99.90
31783;DHT22;18351;47.560;9.708;2024-02-04T09:22:55;8.10;99.90
31783;DHT22;18351;47.560;9.708;2024-02-04T09:25:21;8.10;99.90
31783;DHT22;18351;47.560;9.708;2024-02-04T09:27:46;7.90;99.90
31783;DHT22;18351;47.560;9.708;2024-02-04T09:30:12;7.90;99.90
31783;DHT22;18351;47.560;9.708;2024-02-04T09:32:38;7.90;99.90
31783;DHT22;18351;47.560;9.708;2024-02-04T09:35:04;7.90;99.90
31783;DHT22;18351;47.560;9.708;2024-02-04T09:37:29;7.90;99.90
31783;DHT22;18351;47.560;9.708;2024-02-04T09:39:55;7.90;99.90
31783;DHT22;18351;47.560;9.708;2024-02-04T09:42:21;7.90;99.90
31783;DHT22;18351;47.560;9.708;2024-02-04T09:44:49;8.00;99.90
31783;DHT22;18351;47.560;9.708;2024-02-04T09:47:15;8.00;99.90
31783;DHT22;18351;47.560;9.708;2024-02-04T09:49:41;8.00;99.90
31783;DHT22;18351;47.560;9.708;2024-02-04T09:52:08;8.10;99.90
31783;DHT22;18351;47.560;9.708;2024-02-04T09:54:44;8.00;99.90
31783;DHT22;18351;47.560;9.708;2024-02-04T09:57:11;8.10;99.90
31783;DHT22;18351;47.560;9.708;2024-02-04T09:59:36;8.10;99.90
31783;DHT22;18351;47.560;9.708;2024-02-04T10:02:03;8.20;99.90
31783;DHT22;18351;47.560;9.708;2024-02-04T10:04:30;8.30;99.90
31783;DHT22;18351;47.560;9.708;2024-02-04T10:06:55;8.20;99.90
31783;DHT22;18351;47.560;9.708;2024-02-04T10:09:21;8.30;99.90
31783;DHT22;18351;47.560;9.708;2024-02-04T10:11:47;8.30;99.90
31783;DHT22;18351;47.560;9.708;2024-02-04T10:14:12;8.40;99.90
31783;DHT22;18351;47.560;9.708;2024-02-04T10:16:40;8.60;99.90
31783;DHT22;18351;47.560;9.708;2024-02-04T10:19:06;8.70;99.90
31783;DHT22;18351;47.560;9.708;2024-02-04T10:21:31;8.80;99.90
31783;DHT22;18351;47.560;9.708;2024-02-04T10:23:57;8.90;99.90
31783;DHT22;18351;47.560;9.708;2024-02-04T10:26:28;8.90;99.90
31783;DHT22;18351;47.560;9.708;2024-02-04T10:28:58;9.00;99.90
31783;DHT22;18351;47.560;9.708;2024-02-04T10:31:23;9.10;99.90
31783;DHT22;18351;47.560;9.708;2024-02-04T10:33:50;9.20;99.90
31783;DHT22;18351;47.560;9.708;2024-02-04T10:36:17;9.20;99.90
31783;DHT22;18351;47.560;9.708;2024-02-04T10:38:43;9.20;99.90
31783;DHT22;18351;47.560;9.708;2024-02-04T10:41:13;9.20;99.90
31783;DHT22;18351;47.560;9.708;2024-02-04T10:43:42;9.20;99.90
31783;DHT22;18351;47.560;9.708;2024-02-04T10:46:18;9.20;99.90
31783;DHT22;18351;47.560;9.708;2024-02-04T10:48:48;9.10;99.90
31783;DHT22;18351;47.560;9.708;2024-02-04T10:51:16;9.00;99.90
31783;DHT22;18351;47.560;9.708;2024-02-04T10:53:42;9.00;99.90
31783;DHT22;18351;47.560;9.708;2024-02-04T10:56:19;8.90;99.90
31783;DHT22;18351;47.560;9.708;2024-02-04T10:58:47;8.80;99.90
31783;DHT22;18351;47.560;9.708;2024-02-04T11:01:14;8.90;99.90
31783;DHT22;18351;47.560;9.708;2024-02-04T11:03:40;8.90;99.90
31783;DHT22;18351;47.560;9.708;2024-02-04T11:06:07;8.90;99.90
31783;DHT22;18351;47.560;9.708;2024-02-04T11:08:34;8.70;99.90
31783;DHT22;18351;47.560;9.708;2024-02-04T11:10:59;8.50;99.90
31783;DHT22;18351;47.560;9.708;2024-02-04T11:13:27;8.60;99.90
31783;DHT22;18351;47.560;9.708;2024-02-04T11:15:54;8.70;99.90
31783;DHT22;18351;47.560;9.708;2024-02-04T11:18:52;8.80;99.90
31783;DHT22;18351;47.560;9.708;2024-02-04T11:24:50;9.10;99.90
31783;DHT22;18351;47.560;9.708;2024-02-04T11:27:19;9.40;99.90
31783;DHT22;18351;47.560;9.708;2024-02-04T11:29:45;9.60;99.90
31783;DHT22;18351;47.560;9.708;2024-02-04T11:32:11;9.70;99.90
31783;DHT22;18351;47.560;9.708;2024-02-04T11:34:38;9.70;99.90
31783;DHT22;18351;47.560;9.708;2024-02-04T11:37:18;9.70;99.90
31783;DHT22;18351;47.560;9.708;2024-02-04T11:39:51;9.80;99.90
31783;DHT22;18351;47.560;9.708;2024-02-04T11:42:17;9.90;99.90
31783;DHT22;18351;47.560;9.708;2024-02-04T11:44:44;9.90;99.90
31783;DHT22;18351;47.560;9.708;2024-02-04T11:47:09;10.00;99.90
31783;DHT22;18351;47.560;9.708;2024-02-04T11:49:35;9.90;99.90
31783;DHT22;18351;47.560;9.708;2024-02-04T11:52:00;9.90;99.90
31783;DHT22;18351;47.560;9.708;2024-02-04T11:54:26;9.90;99.90
31783;DHT22;18351;47.560;9.708;2024-02-04T11:56:52;10.00;99.90
31783;DHT22;18351;47.560;9.708;2024-02-04T11:59:20;10.00;99.90
31783;DHT22;18351;47.560;9.708;2024-02-04T12:02:04;10.20;99.90
31783;DHT22;18351;47.560;9.708;2024-02-04T12:04:31;10.20;99.90
31783;DHT22;18351;47.560;9.708;2024-02-04T12:06:57;10.10;99.90
31783;DHT22;18351;47.560;9.708;2024-02-04T12:09:24;10.10;99.90
31783;DHT22;18351;47.560;9.708;2024-02-04T12:11:49;9.90;99.90
31783;DHT22;18351;47.560;9.708;2024-02-04T12:14:18;9.90;99.90
31783;DHT22;18351;47.560;9.708;2024-02-04T12:16:44;10.00;99.90
31783;DHT22;18351;47.560;9.708;2024-02-04T12:19:10;10.20;99.90
31783;DHT22;18351;47.560;9.708;2024-02-04T12:21:37;10.20;99.90
31783;DHT22;18351;47.560;9.708;2024-02-04T12:24:03;10.30;99.90
31783;DHT22;18351;47.560;9.708;2024-02-04T12:26:30;10.30;99.90
31783;DHT22;18351;47.560;9.708;2024-02-04T12:28:56;10.30;99.90
31783;DHT22;18351;47.560;9.708;2024-02-04T12:31:26;10.30;99.90
31783;DHT22;18351;47.560;9.708;2024-02-04T12:33:55;10.50;99.90
31783;DHT22;18351;47.560;9.708;2024-02-04T12:36:29;10.40;99.90
31783;DHT22;18351;47.560;9.708;2024-02-04T12:38:56;10.60;99.90
31783;DHT22;18351;47.560;9.708;2024-02-04T12:41:23;10.70;99.90
31783;DHT22;18351;47.560;9.708;2024-02-04T12:43:56;10.70;99.90
31783;DHT22;18351;47.560;9.708;2024-02-04T12:46:22;10.80;99.90
31783;DHT22;18351;47.560;9.708;2024-02-04T12:48:52;11.10;99.90
31783;DHT22;18351;47.560;9.708;2024-02-04T12:51:29;11.20;99.90
31783;DHT22;18351;47.560;9.708;2024-02-04T12:54:11;11.30;99.90
31783;DHT22;18351;47.560;9.708;2024-02-04T12:56:51;11.40;99.90
31783;DHT22;18351;47.560;9.708;2024-02-04T12:59:30;11.50;99.90
31783;DHT22;18351;47.560;9.708;2024-02-04T13:01:58;11.50;99.90
31783;DHT22;18351;47.560;9.708;2024-02-04T13:04:24;11.50;99.90
31783;DHT22;18351;47.560;9.708;2024-02-04T13:06:50;11.50;99.90
31783;DHT22;18351;47.560;9.708;2024-02-04T13:09:16;11.50;99.90
31783;DHT22;18351;47.560;9.708;2024-02-04T13:11:46;11.40;99.90
31783;DHT22;18351;47.560;9.708;2024-02-04T13:14:12;11.50;99.90
31783;DHT22;18351;47.560;9.708;2024-02-04T13:16:38;11.60;99.90
31783;DHT22;18351;47.560;9.708;2024-02-04T13:19:04;11.50;99.90
31783;DHT22;18351;47.560;9.708;2024-02-04T13:21:30;11.60;99.90
31783;DHT22;18351;47.560;9.708;2024-02-04T13:23:56;11.80;99.90
31783;DHT22;18351;47.560;9.708;2024-02-04T13:26:21;11.80;99.90
31783;DHT22;18351;47.560;9.708;2024-02-04T13:28:47;11.90;99.90
31783;DHT22;18351;47.560;9.708;2024-02-04T13:31:13;12.00;99.90
31783;DHT22;18351;47.560;9.708;2024-02-04T13:33:39;12.20;99.90
31783;DHT22;18351;47.560;9.708;2024-02-04T13:36:07;12.20;99.90
31783;DHT22;18351;47.560;9.708;2024-02-04T13:38:33;12.00;99.90
31783;DHT22;18351;47.560;9.708;2024-02-04T13:40:59;12.00;99.90
31783;DHT22;18351;47.560;9.708;2024-02-04T13:43:24;12.00;99.90
31783;DHT22;18351;47.560;9.708;2024-02-04T13:45:50;11.80;99.90
31783;DHT22;18351;47.560;9.708;2024-02-04T13:48:15;11.90;99.90
31783;DHT22;18351;47.560;9.708;2024-02-04T13:50:41;11.70;99.90
31783;DHT22;18351;47.560;9.708;2024-02-04T13:53:10;11.80;99.90
31783;DHT22;18351;47.560;9.708;2024-02-04T13:55:37;12.00;99.90
31783;DHT22;18351;47.560;9.708;2024-02-04T13:58:03;12.20;99.90
31783;DHT22;18351;47.560;9.708;2024-02-04T14:00:29;12.30;99.90
31783;DHT22;18351;47.560;9.708;2024-02-04T14:02:54;12.30;99.90
31783;DHT22;18351;47.560;9.708;2024-02-04T14:05:20;12.20;99.90
31783;DHT22;18351;47.560;9.708;2024-02-04T14:07:45;12.10;99.90
31783;DHT22;18351;47.560;9.708;2024-02-04T14:10:11;12.10;99.90
31783;DHT22;18351;47.560;9.708;2024-02-04T14:12:38;12.10;99.90
31783;DHT22;18351;47.560;9.708;2024-02-04T14:15:05;12.20;99.90
31783;DHT22;18351;47.560;9.708;2024-02-04T14:17:32;12.20;99.90
31783;DHT22;18351;47.560;9.708;2024-02-04T14:19:58;12.20;99.90
31783;DHT22;18351;47.560;9.708;2024-02-04T14:22:24;12.20;99.90
31783;DHT22;18351;47.560;9.708;2024-02-04T14:24:50;12.20;99.90
31783;DHT22;18351;47.560;9.708;2024-02-04T14:27:15;12.20;99.90
31783;DHT22;18351;47.560;9.708;2024-02-04T14:29:41;12.30;99.90
31783;DHT22;18351;47.560;9.708;2024-02-04T14:32:07;12.30;99.90
31783;DHT22;18351;47.560;9.708;2024-02-04T14:34:34;12.30;99.90
31783;DHT22;18351;47.560;9.708;2024-02-04T14:37:00;12.30;99.90
31783;DHT22;18351;47.560;9.708;2024-02-04T14:39:25;12.30;99.90
31783;DHT22;18351;47.560;9.708;2024-02-04T14:41:51;12.30;99.90
31783;DHT22;18351;47.560;9.708;2024-02-04T14:44:19;12.20;99.90
31783;DHT22;18351;47.560;9.708;2024-02-04T14:46:45;12.20;99.90
31783;DHT22;18351;47.560;9.708;2024-02-04T14:49:11;12.20;99.90
31783;DHT22;18351;47.560;9.708;2024-02-04T14:51:39;12.10;99.90
31783;DHT22;18351;47.560;9.708;2024-02-04T14:54:05;12.00;99.90
31783;DHT22;18351;47.560;9.708;2024-02-04T14:56:36;12.00;99.90
31783;DHT22;18351;47.560;9.708;2024-02-04T14:59:01;11.90;99.90
31783;DHT22;18351;47.560;9.708;2024-02-04T15:01:28;11.90;99.90
31783;DHT22;18351;47.560;9.708;2024-02-04T15:03:53;11.80;99.90
31783;DHT22;18351;47.560;9.708;2024-02-04T15:06:19;11.80;99.90
31783;DHT22;18351;47.560;9.708;2024-02-04T15:08:45;11.70;99.90
31783;DHT22;18351;47.560;9.708;2024-02-04T15:11:11;11.70;99.90
31783;DHT22;18351;47.560;9.708;2024-02-04T15:13:37;11.60;99.90
31783;DHT22;18351;47.560;9.708;2024-02-04T15:16:02;11.60;99.90
31783;DHT22;18351;47.560;9.708;2024-02-04T15:18:29;11.50;99.90
31783;DHT22;18351;47.560;9.708;2024-02-04T15:20:55;11.40;99.90
31783;DHT22;18351;47.560;9.708;2024-02-04T15:23:21;11.40;99.90
31783;DHT22;18351;47.560;9.708;2024-02-04T15:25:48;11.30;99.90
31783;DHT22;18351;47.560;9.708;2024-02-04T15:28:14;11.20;99.90
31783;DHT22;18351;47.560;9.708;2024-02-04T15:30:40;11.20;99.90
31783;DHT22;18351;47.560;9.708;2024-02-04T15:33:06;11.10;99.90
31783;DHT22;18351;47.560;9.708;2024-02-04T15:35:32;11.00;99.90
31783;DHT22;18351;47.560;9.708;2024-02-04T15:37:58;11.00;99.90
31783;DHT22;18351;47.560;9.708;2024-02-04T15:40:24;10.90;99.90
31783;DHT22;18351;47.560;9.708;2024-02-04T15:42:51;10.90;99.90
31783;DHT22;18351;47.560;9.708;2024-02-04T15:45:17;10.80;99.90